Time;durP1;ratioP1;P1;durP2;ratioP2;P2;SDS_P1;SDS_P2;PMS_P1;PMS_P2;Temp;Humidity;BMP_temperature;BMP_pressure;BME280_temperature;BME280_humidity;BME280_pressure;Samples;Min_cycle;Max_cycle;Signal;HPM_P1;HPM_P2
2022/11/05 00:10:22;;;;;;;16.30;8.83;;;7.50;99.90;;;;;;5033769;28;20206;-61
2022/11/05 00:18:18;;;;;;;18.03;9.03;;;7.40;99.90;;;;;;5033649;28;20206;-61
2022/11/05 00:20:45;;;;;;;15.70;9.23;;;7.40;99.90;;;;;;5033430;28;20676;-61
2022/11/05 00:25:58;;;;;;;16.37;8.57;;;7.30;99.90;;;;;;5033522;28;20201;-60
2022/11/05 00:28:27;;;;;;;14.67;9.20;;;7.20;99.90;;;;;;5033716;28;20202;-59
2022/11/05 00:31:00;;;;;;;20.40;9.37;;;7.20;99.90;;;;;;5033311;28;20280;-57
2022/11/05 00:33:27;;;;;;;15.50;9.10;;;7.20;99.90;;;;;;5033115;28;20214;-59
2022/11/05 00:35:54;;;;;;;14.23;9.07;;;7.10;99.90;;;;;;5032775;28;20264;-57
2022/11/05 00:38:20;;;;;;;15.37;10.37;;;7.10;99.90;;;;;;5032516;28;20206;-59
2022/11/05 00:40:47;;;;;;;22.17;10.83;;;7.20;99.90;;;;;;5033285;28;20261;-59
2022/11/05 00:45:59;;;;;;;18.50;10.07;;;7.10;99.90;;;;;;5032899;28;20205;-59
2022/11/05 00:51:10;;;;;;;21.73;10.07;;;7.00;99.90;;;;;;5032761;28;20706;-60
2022/11/05 00:53:37;;;;;;;23.83;10.30;;;7.00;99.90;;;;;;5033016;28;20221;-59
2022/11/05 00:56:04;;;;;;;21.53;10.93;;;7.00;99.90;;;;;;5032534;28;20210;-61
2022/11/05 00:58:31;;;;;;;16.27;10.40;;;7.00;99.90;;;;;;5032276;28;20672;-61
2022/11/05 01:01:00;;;;;;;18.63;10.50;;;6.90;99.90;;;;;;5032506;28;20284;-61
2022/11/05 01:03:29;;;;;;;17.00;10.33;;;6.80;99.90;;;;;;5032526;28;20209;-61
2022/11/05 01:05:58;;;;;;;15.33;9.97;;;6.80;99.90;;;;;;5032404;28;20677;-58
2022/11/05 01:08:27;;;;;;;20.30;10.67;;;6.80;99.90;;;;;;5032671;28;20213;-60
2022/11/05 01:10:57;;;;;;;17.53;11.07;;;6.80;99.90;;;;;;5032597;28;20229;-58
2022/11/05 01:13:26;;;;;;;20.80;11.33;;;6.80;99.90;;;;;;5032574;28;20210;-59
2022/11/05 01:15:53;;;;;;;22.73;11.53;;;6.80;99.90;;;;;;5032476;28;20624;-61
2022/11/05 01:18:23;;;;;;;18.90;11.43;;;6.80;99.90;;;;;;5032628;28;20214;-59
2022/11/05 01:20:50;;;;;;;21.07;11.63;;;6.70;99.90;;;;;;5032356;28;20268;-59
2022/11/05 01:23:17;;;;;;;21.73;11.90;;;6.70;99.90;;;;;;5032753;28;20211;-61
2022/11/05 01:25:44;;;;;;;18.90;11.17;;;6.70;99.90;;;;;;5032472;28;20214;-59
2022/11/05 01:28:11;;;;;;;20.77;12.53;;;6.70;99.90;;;;;;5031915;28;20206;-60
2022/11/05 01:30:38;;;;;;;22.60;11.67;;;6.60;99.90;;;;;;5032577;28;20215;-59
2022/11/05 01:33:05;;;;;;;24.47;12.37;;;6.60;99.90;;;;;;5032385;28;20641;-59
2022/11/05 01:35:33;;;;;;;23.47;12.57;;;6.60;99.90;;;;;;5032210;28;20743;-60
2022/11/05 01:37:59;;;;;;;23.37;12.53;;;6.60;99.90;;;;;;5032166;28;20233;-60
2022/11/05 01:40:26;;;;;;;28.20;12.27;;;6.60;99.90;;;;;;5032316;28;20210;-61
2022/11/05 01:42:53;;;;;;;22.40;12.67;;;6.60;99.90;;;;;;5031796;28;20280;-60
2022/11/05 01:45:24;;;;;;;25.03;13.13;;;6.60;99.90;;;;;;5032329;28;20210;-60
2022/11/05 01:47:56;;;;;;;22.03;11.80;;;6.60;99.90;;;;;;5031879;28;20210;-60
2022/11/05 01:50:30;;;;;;;24.40;12.90;;;6.50;99.90;;;;;;5032152;28;20344;-61
2022/11/05 01:53:04;;;;;;;22.73;13.03;;;6.50;99.90;;;;;;5031847;28;20237;-60
2022/11/05 01:55:35;;;;;;;24.63;13.10;;;6.50;99.90;;;;;;5031852;28;20210;-60
2022/11/05 01:58:05;;;;;;;30.63;14.13;;;6.40;99.90;;;;;;5031829;28;20206;-61
2022/11/05 02:00:31;;;;;;;26.37;14.17;;;6.40;99.90;;;;;;5031979;28;20692;-61
2022/11/05 02:02:58;;;;;;;25.63;13.97;;;6.40;99.90;;;;;;5031570;28;20233;-60
2022/11/05 02:05:25;;;;;;;25.67;14.87;;;6.40;99.90;;;;;;5031642;28;20202;-60
2022/11/05 02:07:53;;;;;;;23.40;13.77;;;6.40;99.90;;;;;;5031207;28;20210;-61
2022/11/05 02:10:23;;;;;;;27.10;13.97;;;6.30;99.90;;;;;;5034952;28;20570;-61
2022/11/05 02:12:49;;;;;;;32.40;15.97;;;6.30;99.90;;;;;;5035661;28;20771;-61
2022/11/05 02:15:23;;;;;;;29.07;16.13;;;6.20;99.90;;;;;;5035739;28;20701;-61
2022/11/05 02:17:58;;;;;;;30.40;16.57;;;6.20;99.90;;;;;;5035380;28;20217;-60
2022/11/05 02:20:46;;;;;;;31.83;16.17;;;6.20;99.90;;;;;;5035668;28;20583;-61
2022/11/05 02:23:53;;;;;;;33.20;15.87;;;6.20;99.90;;;;;;5035643;28;20726;-59
2022/11/05 02:26:56;;;;;;;27.27;16.73;;;6.20;99.90;;;;;;5035564;28;20214;-59
2022/11/05 02:29:49;;;;;;;30.70;17.07;;;6.20;99.90;;;;;;5035666;28;20260;-60
2022/11/05 02:32:27;;;;;;;34.97;16.63;;;6.20;99.90;;;;;;5035656;28;20234;-61
2022/11/05 02:35:02;;;;;;;32.63;17.57;;;6.20;99.90;;;;;;5035495;28;20594;-57
2022/11/05 02:37:38;;;;;;;33.90;17.07;;;6.10;99.90;;;;;;5035894;28;20272;-60
2022/11/05 02:40:15;;;;;;;34.47;18.67;;;6.10;99.90;;;;;;5035656;28;20648;-60
2022/11/05 02:42:47;;;;;;;37.87;19.10;;;6.10;99.90;;;;;;5035408;28;20598;-60
2022/11/05 02:45:25;;;;;;;28.07;17.07;;;6.10;99.90;;;;;;5035350;28;20249;-60
2022/11/05 02:47:58;;;;;;;31.50;18.23;;;6.10;99.90;;;;;;5035165;28;20569;-60
2022/11/05 02:50:32;;;;;;;33.43;17.23;;;6.10;99.90;;;;;;5035470;28;20206;-60
2022/11/05 02:53:02;;;;;;;33.47;17.47;;;6.10;99.90;;;;;;5034996;28;20237;-60
2022/11/05 02:55:34;;;;;;;30.23;17.50;;;6.10;99.90;;;;;;5035375;28;20272;-59
2022/11/05 02:58:03;;;;;;;33.03;17.37;;;6.10;99.90;;;;;;5034642;28;20206;-60
2022/11/05 03:00:46;;;;;;;31.90;17.57;;;6.10;99.90;;;;;;5035295;28;20631;-60
2022/11/05 03:03:21;;;;;;;30.47;17.77;;;6.00;99.90;;;;;;5034714;28;20779;-60
2022/11/05 03:05:59;;;;;;;36.83;19.93;;;6.00;99.90;;;;;;5035142;28;20349;-60
2022/11/05 03:08:37;;;;;;;33.43;18.63;;;6.00;99.90;;;;;;5034976;28;20267;-58
2022/11/05 03:11:12;;;;;;;33.87;18.80;;;6.10;99.90;;;;;;5034876;28;20206;-60
2022/11/05 03:13:48;;;;;;;35.10;18.90;;;6.00;99.90;;;;;;5034806;28;20603;-62
2022/11/05 03:16:21;;;;;;;36.13;19.60;;;6.10;99.90;;;;;;5034512;28;20206;-61
2022/11/05 03:18:58;;;;;;;36.93;19.43;;;6.10;99.90;;;;;;5034360;28;20207;-61
2022/11/05 03:21:33;;;;;;;36.67;20.53;;;6.10;99.90;;;;;;5034601;28;20296;-61
2022/11/05 03:24:04;;;;;;;36.83;19.10;;;6.10;99.90;;;;;;5034609;28;20639;-61
2022/11/05 03:26:33;;;;;;;39.73;19.73;;;6.10;99.90;;;;;;5034337;28;20210;-61
2022/11/05 03:29:05;;;;;;;33.70;19.60;;;6.10;99.90;;;;;;5034359;28;20210;-60
2022/11/05 03:31:34;;;;;;;34.97;19.30;;;6.00;99.90;;;;;;5034488;28;20226;-59
2022/11/05 03:34:04;;;;;;;34.17;20.93;;;6.00;99.90;;;;;;5034227;28;20209;-60
2022/11/05 03:36:33;;;;;;;34.07;18.97;;;6.00;99.90;;;;;;5034384;28;20201;-60
2022/11/05 03:39:04;;;;;;;32.50;18.07;;;6.00;99.90;;;;;;5034226;28;20633;-61
2022/11/05 03:41:33;;;;;;;31.70;18.70;;;6.00;99.90;;;;;;5034134;28;20233;-62
2022/11/05 03:44:03;;;;;;;29.53;18.10;;;5.90;99.90;;;;;;5034482;28;20217;-61
2022/11/05 03:46:33;;;;;;;32.67;19.27;;;5.90;99.90;;;;;;5033928;28;20859;-58
2022/11/05 03:49:05;;;;;;;31.83;17.53;;;5.90;99.90;;;;;;5034249;28;20202;-61
2022/11/05 03:51:39;;;;;;;34.47;18.27;;;5.80;99.90;;;;;;5034089;28;20720;-58
2022/11/05 03:54:06;;;;;;;38.07;18.93;;;5.80;99.90;;;;;;5034028;28;20210;-60
2022/11/05 03:56:38;;;;;;;39.17;20.03;;;5.80;99.90;;;;;;5033943;28;20584;-58
2022/11/05 03:59:07;;;;;;;34.10;20.20;;;5.80;99.90;;;;;;5034142;28;20334;-62
2022/11/05 04:01:36;;;;;;;31.53;19.20;;;5.80;99.90;;;;;;5033800;28;20333;-60
2022/11/05 04:04:04;;;;;;;32.47;18.97;;;5.80;99.90;;;;;;5033620;28;20210;-60
2022/11/05 04:14:44;;;;;;;41.30;20.00;;;5.90;99.90;;;;;;5033523;28;20248;-60
2022/11/05 04:17:10;;;;;;;40.00;21.63;;;5.80;99.90;;;;;;5033338;28;20210;-57
2022/11/05 04:25:10;;;;;;;40.33;20.77;;;5.90;99.90;;;;;;5033590;28;20213;-58
2022/11/05 04:27:37;;;;;;;43.43;21.60;;;5.80;99.90;;;;;;5033488;28;20217;-59
2022/11/05 04:30:19;;;;;;;44.57;21.33;;;5.80;99.90;;;;;;5033387;28;20217;-60
2022/11/05 04:33:01;;;;;;;38.20;21.43;;;5.80;99.90;;;;;;5032818;28;20236;-62
2022/11/05 04:35:31;;;;;;;41.87;22.10;;;5.80;99.90;;;;;;5033227;28;20264;-60
2022/11/05 04:37:58;;;;;;;44.77;23.10;;;5.80;99.90;;;;;;5032964;28;20584;-59
2022/11/05 04:40:25;;;;;;;57.60;25.30;;;5.70;99.90;;;;;;5033142;28;20254;-60
2022/11/05 04:42:53;;;;;;;51.30;23.87;;;5.70;99.90;;;;;;5032912;28;20660;-60
2022/11/05 04:45:20;;;;;;;52.80;23.10;;;5.70;99.90;;;;;;5032863;28;20210;-60
2022/11/05 04:47:47;;;;;;;56.77;24.07;;;5.70;99.90;;;;;;5032934;28;20253;-62
2022/11/05 04:50:14;;;;;;;51.63;23.80;;;5.70;99.90;;;;;;5032866;28;20851;-59
2022/11/05 04:52:42;;;;;;;49.27;22.97;;;5.70;99.90;;;;;;5032939;28;20972;-62
2022/11/05 04:55:09;;;;;;;57.80;24.00;;;5.70;99.90;;;;;;5032951;28;20213;-59
2022/11/05 04:57:36;;;;;;;47.63;25.00;;;5.70;99.90;;;;;;5032814;28;20280;-61
2022/11/05 05:00:04;;;;;;;54.03;25.50;;;5.70;99.90;;;;;;5032692;28;20623;-58
2022/11/05 05:02:31;;;;;;;51.87;23.33;;;5.60;99.90;;;;;;5032844;28;20295;-59
2022/11/05 05:04:58;;;;;;;48.50;23.77;;;5.60;99.90;;;;;;5032648;28;20258;-62
2022/11/05 05:07:25;;;;;;;53.13;23.23;;;5.60;99.90;;;;;;5032642;28;20259;-58
2022/11/05 05:09:53;;;;;;;44.63;22.60;;;5.60;99.90;;;;;;5032684;28;20228;-60
2022/11/05 05:12:20;;;;;;;45.90;22.40;;;5.60;99.90;;;;;;5032525;28;20238;-59
2022/11/05 05:14:48;;;;;;;47.77;21.07;;;5.60;99.90;;;;;;5032454;28;20209;-58
2022/11/05 05:17:15;;;;;;;48.60;20.80;;;5.50;99.90;;;;;;5032282;28;20300;-61
2022/11/05 05:22:26;;;;;;;47.30;21.20;;;5.50;99.90;;;;;;5032488;28;20237;-60
2022/11/05 05:24:55;;;;;;;51.93;23.17;;;5.50;99.90;;;;;;5032284;28;20209;-59
2022/11/05 05:27:22;;;;;;;46.70;21.93;;;5.50;99.90;;;;;;5031985;28;20736;-59
2022/11/05 05:29:48;;;;;;;45.50;22.10;;;5.50;99.90;;;;;;5032054;28;20319;-60
2022/11/05 05:32:15;;;;;;;45.03;22.53;;;5.50;99.90;;;;;;5032023;28;20298;-60
2022/11/05 05:34:42;;;;;;;44.23;20.50;;;5.50;99.90;;;;;;5032162;28;20261;-60
2022/11/05 05:37:08;;;;;;;47.97;22.10;;;5.50;99.90;;;;;;5032037;28;20210;-60
2022/11/05 05:39:35;;;;;;;46.03;19.90;;;5.50;99.90;;;;;;5032079;28;20209;-60
2022/11/05 05:42:03;;;;;;;50.80;21.63;;;5.50;99.90;;;;;;5031796;28;20646;-60
2022/11/05 05:44:30;;;;;;;45.83;20.53;;;5.50;99.90;;;;;;5031076;28;20218;-61
2022/11/05 05:46:56;;;;;;;46.53;21.13;;;5.40;99.90;;;;;;5032018;28;20638;-61
2022/11/05 05:49:23;;;;;;;50.70;22.63;;;5.50;99.90;;;;;;5031816;28;20684;-61
2022/11/05 05:51:50;;;;;;;47.07;22.27;;;5.50;99.90;;;;;;5031755;28;20332;-61
2022/11/05 05:54:16;;;;;;;42.13;21.60;;;5.50;99.90;;;;;;5032067;28;20236;-61
2022/11/05 05:56:44;;;;;;;50.40;21.27;;;5.50;99.90;;;;;;5031607;28;20278;-61
2022/11/05 05:59:12;;;;;;;49.13;21.00;;;5.40;99.90;;;;;;5031738;28;20213;-61
2022/11/05 06:01:39;;;;;;;46.07;22.87;;;5.40;99.90;;;;;;5031595;28;20653;-61
2022/11/05 06:04:05;;;;;;;52.07;21.90;;;5.40;99.90;;;;;;5032040;28;20205;-61
2022/11/05 06:06:32;;;;;;;44.60;21.97;;;5.40;99.90;;;;;;5031585;28;20248;-61
2022/11/05 06:08:59;;;;;;;45.20;22.27;;;5.40;99.90;;;;;;5031897;28;20269;-61
2022/11/05 06:11:25;;;;;;;43.87;21.40;;;5.40;99.90;;;;;;5031702;28;20233;-60
2022/11/05 06:13:52;;;;;;;49.50;22.67;;;5.40;99.90;;;;;;5031561;28;20221;-61
2022/11/05 06:16:20;;;;;;;44.97;22.53;;;5.40;99.90;;;;;;5031624;28;20216;-60
2022/11/05 06:18:47;;;;;;;59.60;24.13;;;5.40;99.90;;;;;;5031745;28;20205;-59
2022/11/05 06:21:15;;;;;;;50.33;22.27;;;5.40;99.90;;;;;;5031398;28;20233;-60
2022/11/05 06:23:44;;;;;;;45.23;21.50;;;5.40;99.90;;;;;;5031681;28;20205;-60
2022/11/05 06:26:12;;;;;;;54.53;21.83;;;5.40;99.90;;;;;;5031221;28;20236;-60
2022/11/05 06:28:40;;;;;;;50.80;22.57;;;5.40;99.90;;;;;;5031742;28;20629;-61
2022/11/05 06:31:07;;;;;;;51.87;23.27;;;5.40;99.90;;;;;;5031508;28;20213;-61
2022/11/05 06:33:35;;;;;;;49.43;23.97;;;5.40;99.90;;;;;;5031597;28;20279;-59
2022/11/05 06:36:03;;;;;;;53.97;23.43;;;5.40;99.90;;;;;;5031055;28;20210;-62
2022/11/05 06:38:32;;;;;;;58.43;25.10;;;5.40;99.90;;;;;;5031328;28;20753;-61
2022/11/05 06:40:59;;;;;;;53.60;23.40;;;5.40;99.90;;;;;;5031063;28;20210;-59
2022/11/05 06:43:26;;;;;;;53.40;24.57;;;5.40;99.90;;;;;;5031384;28;20201;-61
2022/11/05 06:45:53;;;;;;;54.47;23.40;;;5.30;99.90;;;;;;5031169;28;20208;-62
2022/11/05 06:48:20;;;;;;;63.10;27.47;;;5.30;99.90;;;;;;5031434;28;20405;-61
2022/11/05 06:50:48;;;;;;;69.33;28.57;;;5.30;99.90;;;;;;5031167;28;20210;-61
2022/11/05 06:53:15;;;;;;;63.07;27.50;;;5.30;99.90;;;;;;5031197;28;20637;-61
2022/11/05 06:55:43;;;;;;;76.30;28.80;;;5.30;99.90;;;;;;5033482;28;20213;-61
2022/11/05 06:58:10;;;;;;;66.93;28.90;;;5.40;99.90;;;;;;5034755;28;20301;-61
2022/11/05 07:00:36;;;;;;;73.10;31.83;;;5.40;99.90;;;;;;5035169;28;20240;-61
2022/11/05 07:03:04;;;;;;;74.67;30.13;;;5.40;99.90;;;;;;5034984;28;20229;-61
2022/11/05 07:05:32;;;;;;;69.63;30.20;;;5.40;99.90;;;;;;5034753;28;20221;-61
2022/11/05 07:08:00;;;;;;;78.63;31.47;;;5.40;99.90;;;;;;5034448;28;20293;-62
2022/11/05 07:10:26;;;;;;;83.93;32.20;;;5.40;99.90;;;;;;5034764;28;20210;-60
2022/11/05 07:12:53;;;;;;;85.13;32.30;;;5.40;99.90;;;;;;5034691;28;20235;-61
2022/11/05 07:15:20;;;;;;;77.80;31.37;;;5.40;99.90;;;;;;5035099;28;20212;-61
2022/11/05 07:17:47;;;;;;;79.50;30.83;;;5.50;99.90;;;;;;5034531;28;20267;-61
2022/11/05 07:20:13;;;;;;;82.77;31.13;;;5.50;99.90;;;;;;5034541;28;20216;-61
2022/11/05 07:22:40;;;;;;;78.23;32.03;;;5.60;99.90;;;;;;5034971;28;20701;-60
2022/11/05 07:25:09;;;;;;;92.97;31.77;;;5.60;99.90;;;;;;5035004;28;20213;-61
2022/11/05 07:27:39;;;;;;;90.97;33.63;;;5.60;99.90;;;;;;5034561;28;20209;-60
2022/11/05 07:30:08;;;;;;;85.80;32.37;;;5.70;99.90;;;;;;5034734;28;20245;-59
2022/11/05 07:32:38;;;;;;;95.40;34.97;;;5.70;99.90;;;;;;5034499;28;20255;-59
2022/11/05 07:35:06;;;;;;;85.30;32.23;;;5.70;99.90;;;;;;5034462;28;20205;-60
2022/11/05 07:37:33;;;;;;;84.37;32.23;;;5.80;99.90;;;;;;5034195;28;20206;-60
2022/11/05 07:40:00;;;;;;;99.57;36.40;;;5.80;99.90;;;;;;5034429;28;20246;-60
2022/11/05 07:42:28;;;;;;;87.33;34.20;;;5.90;99.90;;;;;;5034075;28;20259;-61
2022/11/05 07:44:54;;;;;;;96.97;35.27;;;6.00;99.90;;;;;;5034170;28;20257;-61
2022/11/05 07:47:21;;;;;;;92.40;35.13;;;6.00;99.90;;;;;;5033817;28;20209;-61
2022/11/05 07:49:48;;;;;;;95.50;35.50;;;6.10;99.90;;;;;;5034069;28;20260;-59
2022/11/05 07:52:14;;;;;;;97.10;36.30;;;6.10;99.90;;;;;;5033977;28;20222;-61
2022/11/05 07:54:41;;;;;;;86.60;35.10;;;6.10;99.90;;;;;;5033945;28;20238;-61
2022/11/05 07:57:07;;;;;;;91.37;36.50;;;6.10;99.90;;;;;;5033745;28;20217;-61
2022/11/05 07:59:35;;;;;;;98.37;37.43;;;6.20;99.90;;;;;;5033965;28;20216;-61
2022/11/05 08:02:02;;;;;;;95.63;34.10;;;6.20;99.90;;;;;;5033031;28;20226;-60
2022/11/05 08:04:29;;;;;;;94.00;35.90;;;6.30;99.90;;;;;;5033927;28;20654;-61
2022/11/05 08:06:55;;;;;;;88.27;35.77;;;6.40;99.90;;;;;;5032606;28;20206;-60
2022/11/05 08:09:22;;;;;;;83.13;34.83;;;6.50;99.90;;;;;;5033610;28;20206;-61
2022/11/05 08:11:49;;;;;;;87.77;35.60;;;6.50;99.90;;;;;;5033631;28;20222;-60
2022/11/05 08:14:15;;;;;;;80.13;34.70;;;6.60;99.90;;;;;;5033454;28;20754;-61
2022/11/05 08:16:43;;;;;;;81.77;34.03;;;6.60;99.90;;;;;;5033234;28;20210;-60
2022/11/05 08:19:10;;;;;;;75.67;32.73;;;6.70;99.90;;;;;;5033449;28;20225;-61
2022/11/05 08:21:37;;;;;;;82.70;33.40;;;6.80;99.90;;;;;;5033576;28;20602;-60
2022/11/05 08:24:04;;;;;;;79.83;32.27;;;6.80;99.90;;;;;;5033519;28;20206;-61
2022/11/05 08:26:30;;;;;;;90.13;34.00;;;6.90;99.90;;;;;;5033408;28;20555;-61
2022/11/05 08:28:59;;;;;;;85.57;31.53;;;7.00;99.90;;;;;;5033244;28;20210;-61
2022/11/05 08:31:25;;;;;;;82.27;33.33;;;7.00;99.90;;;;;;5033202;28;20236;-61
2022/11/05 08:33:53;;;;;;;81.30;34.40;;;7.10;99.90;;;;;;5033191;28;20241;-61
2022/11/05 08:36:20;;;;;;;85.23;34.40;;;7.20;99.90;;;;;;5032912;28;20256;-61
2022/11/05 08:38:47;;;;;;;83.57;33.37;;;7.20;99.90;;;;;;5033036;28;20236;-58
2022/11/05 08:41:13;;;;;;;88.73;34.30;;;7.30;99.90;;;;;;5032949;28;20242;-60
2022/11/05 08:43:40;;;;;;;84.20;35.13;;;7.40;99.90;;;;;;5032878;28;20236;-60
2022/11/05 08:46:07;;;;;;;73.20;32.20;;;7.50;99.90;;;;;;5033068;28;20329;-60
2022/11/05 08:48:34;;;;;;;72.60;31.33;;;7.50;99.90;;;;;;5033000;28;20230;-61
2022/11/05 08:51:01;;;;;;;76.33;31.20;;;7.60;99.90;;;;;;5032953;28;20256;-61
2022/11/05 08:53:28;;;;;;;69.23;30.97;;;7.70;99.90;;;;;;5032616;28;20300;-61
2022/11/05 08:55:58;;;;;;;68.47;31.70;;;7.70;99.90;;;;;;5032632;28;20568;-62
2022/11/05 08:58:24;;;;;;;75.40;32.17;;;7.80;99.90;;;;;;5032645;28;20630;-61
2022/11/05 09:00:51;;;;;;;69.07;32.17;;;7.90;99.90;;;;;;5032612;28;20743;-61
2022/11/05 09:03:18;;;;;;;69.90;34.13;;;8.00;99.90;;;;;;5032761;28;20203;-61
2022/11/05 09:05:45;;;;;;;83.83;33.47;;;8.10;99.90;;;;;;5032643;28;20560;-61
2022/11/05 09:08:15;;;;;;;65.63;31.00;;;8.20;99.90;;;;;;5032418;28;20263;-61
2022/11/05 09:10:42;;;;;;;66.60;31.80;;;8.20;99.90;;;;;;5032546;28;20202;-61
2022/11/05 09:13:09;;;;;;;65.53;31.80;;;8.30;99.90;;;;;;5032967;28;20232;-61
2022/11/05 09:15:36;;;;;;;61.33;29.37;;;8.30;99.90;;;;;;5032617;28;20217;-60
2022/11/05 09:18:04;;;;;;;57.90;28.77;;;8.50;99.90;;;;;;5032518;28;20253;-60
2022/11/05 09:20:31;;;;;;;54.17;26.90;;;8.50;99.90;;;;;;5032829;28;20232;-60
2022/11/05 09:22:58;;;;;;;36.10;22.67;;;8.60;99.90;;;;;;5032530;28;20259;-59
2022/11/05 09:25:26;;;;;;;39.10;21.33;;;8.70;99.90;;;;;;5032653;28;20202;-59
2022/11/05 09:27:53;;;;;;;26.07;17.30;;;8.70;99.90;;;;;;5032411;28;20209;-59
2022/11/05 09:30:20;;;;;;;29.77;16.93;;;8.80;99.90;;;;;;5032768;28;20338;-59
2022/11/05 09:32:47;;;;;;;26.53;15.23;;;8.90;99.90;;;;;;5032041;28;20239;-61
2022/11/05 09:35:13;;;;;;;19.83;13.27;;;8.90;99.90;;;;;;5032604;28;20233;-59
2022/11/05 09:37:40;;;;;;;21.37;13.93;;;9.00;99.90;;;;;;5032521;28;20209;-62
2022/11/05 09:40:07;;;;;;;19.83;12.93;;;9.00;99.90;;;;;;5032389;28;20301;-61
2022/11/05 09:42:40;;;;;;;19.13;12.13;;;9.10;99.90;;;;;;5032043;28;20237;-59
2022/11/05 09:45:13;;;;;;;18.10;11.27;;;9.20;99.90;;;;;;5032070;28;20282;-60
2022/11/05 09:47:44;;;;;;;17.90;10.80;;;9.30;99.90;;;;;;5031853;28;20279;-57
2022/11/05 09:50:15;;;;;;;15.97;9.53;;;9.30;99.90;;;;;;5031639;28;20239;-60
2022/11/05 09:52:42;;;;;;;17.60;9.57;;;9.40;99.90;;;;;;5031712;28;20233;-60
2022/11/05 09:55:19;;;;;;;19.57;9.27;;;9.50;99.90;;;;;;5031762;28;20655;-60
2022/11/05 09:57:54;;;;;;;14.67;8.70;;;9.50;99.90;;;;;;5031459;28;20220;-61
2022/11/05 10:00:21;;;;;;;15.33;8.63;;;9.60;99.90;;;;;;5031658;28;20675;-62
2022/11/05 10:02:51;;;;;;;13.40;8.30;;;9.70;99.90;;;;;;5019588;28;20723;-61
2022/11/05 10:05:20;;;;;;;15.43;8.13;;;9.80;99.90;;;;;;5030932;28;20581;-61
2022/11/05 10:07:50;;;;;;;14.27;7.77;;;9.80;99.90;;;;;;5031364;28;20205;-61
2022/11/05 10:10:30;;;;;;;16.30;7.57;;;9.80;99.90;;;;;;5031255;28;20627;-61
2022/11/05 10:13:02;;;;;;;11.50;7.17;;;9.90;99.90;;;;;;5031166;28;20230;-61
2022/11/05 10:15:33;;;;;;;10.70;7.10;;;10.00;99.90;;;;;;5031267;28;20229;-61
2022/11/05 10:18:11;;;;;;;13.50;6.17;;;10.00;99.90;;;;;;5030442;28;20194;-62
2022/11/05 10:20:39;;;;;;;12.00;5.90;;;10.10;99.90;;;;;;5035707;28;20206;-64
2022/11/05 10:23:11;;;;;;;8.70;5.30;;;10.00;99.90;;;;;;5029759;28;20229;-61
2022/11/05 10:25:41;;;;;;;11.60;5.60;;;10.00;99.90;;;;;;5030961;28;20202;-61
2022/11/05 10:28:15;;;;;;;12.73;5.23;;;9.90;99.90;;;;;;5031161;28;20206;-61
2022/11/05 10:30:42;;;;;;;11.30;5.40;;;10.10;99.90;;;;;;5033127;28;20216;-61
2022/11/05 10:33:12;;;;;;;8.47;4.80;;;10.10;99.90;;;;;;5034713;28;20222;-60
2022/11/05 10:35:49;;;;;;;8.13;5.20;;;10.10;99.90;;;;;;5034771;28;20709;-60
2022/11/05 10:38:16;;;;;;;10.13;5.03;;;10.10;99.90;;;;;;5034280;28;20210;-59
2022/11/05 10:40:53;;;;;;;9.07;5.43;;;10.20;99.90;;;;;;5034706;28;20559;-56
2022/11/05 10:43:28;;;;;;;9.50;4.70;;;10.30;99.90;;;;;;5034821;28;20229;-61
2022/11/05 10:46:02;;;;;;;6.40;4.33;;;10.40;99.90;;;;;;5034725;28;20629;-59
2022/11/05 10:48:51;;;;;;;8.00;4.53;;;10.50;99.90;;;;;;5034813;28;20205;-59
2022/11/05 10:51:19;;;;;;;9.33;4.40;;;10.60;99.90;;;;;;5014888;28;20281;-59
2022/11/05 10:53:52;;;;;;;7.67;4.17;;;10.80;99.90;;;;;;5014303;28;20689;-55
2022/11/05 10:56:28;;;;;;;7.43;4.53;;;10.90;99.90;;;;;;5014378;28;20207;-57
2022/11/05 10:58:58;;;;;;;10.90;4.80;;;10.90;94.80;;;;;;5014766;28;20214;-59
2022/11/05 11:01:26;;;;;;;7.40;4.80;;;10.90;66.20;;;;;;5014774;28;20227;-56
2022/11/05 11:04:05;;;;;;;10.10;3.93;;;10.90;81.60;;;;;;5014786;28;20639;-56
2022/11/05 11:06:36;;;;;;;10.63;4.00;;;10.80;45.30;;;;;;5014629;28;20218;-57
2022/11/05 11:09:06;;;;;;;6.33;3.80;;;10.90;70.00;;;;;;5014713;28;20314;-59
2022/11/05 11:11:35;;;;;;;12.53;4.60;;;10.90;46.60;;;;;;5014448;28;20232;-58
2022/11/05 11:14:06;;;;;;;8.20;4.07;;;11.00;48.10;;;;;;5014575;28;20281;-59
2022/11/05 11:16:38;;;;;;;8.20;4.33;;;10.90;34.80;;;;;;5018045;28;20623;-58
2022/11/05 11:19:23;;;;;;;8.20;4.43;;;11.10;27.40;;;;;;5033110;28;20203;-59
2022/11/05 11:22:12;;;;;;;7.97;4.10;;;11.10;64.20;;;;;;5032261;28;20230;-59
2022/11/05 11:24:41;;;;;;;8.10;4.40;;;11.10;33.70;;;;;;5033832;28;20347;-59
2022/11/05 11:27:10;;;;;;;6.87;3.70;;;10.90;23.60;;;;;;5032104;28;20246;-59
2022/11/05 11:29:41;;;;;;;11.60;3.83;;;10.80;55.30;;;;;;5033777;28;20207;-57
2022/11/05 11:32:13;;;;;;;8.93;4.80;;;10.90;52.10;;;;;;5033235;28;20631;-62
2022/11/05 11:34:40;;;;;;;6.77;4.30;;;11.00;35.80;;;;;;5033181;28;20729;-62
2022/11/05 11:37:09;;;;;;;8.47;4.17;;;11.20;25.30;;;;;;5032668;28;20233;-59
2022/11/05 11:39:38;;;;;;;8.33;4.37;;;11.20;28.30;;;;;;5034073;28;20211;-60
2022/11/05 11:42:11;;;;;;;9.57;4.63;;;11.10;39.50;;;;;;5032093;28;20296;-58
2022/11/05 11:44:44;;;;;;;12.07;5.20;;;11.10;34.60;;;;;;5033303;28;20199;-58
2022/11/05 11:47:15;;;;;;;8.00;5.20;;;11.00;37.70;;;;;;5033192;28;20260;-51
2022/11/05 11:49:46;;;;;;;9.80;4.57;;;11.00;49.60;;;;;;5033828;28;20210;-59
2022/11/05 11:52:14;;;;;;;10.33;5.27;;;11.20;42.40;;;;;;5033452;28;20656;-59
2022/11/05 11:54:41;;;;;;;7.13;5.23;;;11.30;48.10;;;;;;5033684;28;20255;-59
2022/11/05 11:57:22;;;;;;;9.70;5.10;;;11.30;41.70;;;;;;5033068;28;20214;-57
2022/11/05 11:59:50;;;;;;;9.43;5.13;;;11.40;39.30;;;;;;5033768;28;20289;-61
2022/11/05 12:02:40;;;;;;;11.03;5.50;;;11.50;22.30;;;;;;5033554;28;20237;-61
2022/11/05 12:05:26;;;;;;;11.57;6.17;;;11.40;3.80;;;;;;5033389;28;20289;-62
2022/11/05 12:07:56;;;;;;;9.03;4.90;;;11.10;17.40;;;;;;5033399;28;20281;-59
2022/11/05 12:10:42;;;;;;;10.43;5.50;;;11.00;43.50;;;;;;5033628;28;20213;-59
2022/11/05 12:13:49;;;;;;;9.10;5.97;;;11.00;46.50;;;;;;5033061;28;20233;-59
2022/11/05 12:16:29;;;;;;;10.27;5.67;;;11.10;32.40;;;;;;5032935;28;20283;-64
2022/11/05 12:19:06;;;;;;;9.20;5.33;;;11.10;54.10;;;;;;5020070;28;20584;-66
2022/11/05 12:21:41;;;;;;;10.40;5.57;;;11.00;54.80;;;;;;5011276;28;20234;-66
2022/11/05 12:24:31;;;;;;;10.57;5.67;;;11.00;45.80;;;;;;5013376;28;20269;-64
2022/11/05 12:27:10;;;;;;;13.03;5.37;;;11.00;55.50;;;;;;5013140;28;20216;-66
2022/11/05 12:29:52;;;;;;;9.20;5.60;;;11.10;66.40;;;;;;5013199;28;20213;-66
2022/11/05 12:32:58;;;;;;;10.07;5.13;;;11.00;65.40;;;;;;5019824;28;20222;-60
2022/11/05 12:35:40;;;;;;;10.50;6.17;;;10.90;64.80;;;;;;5032974;28;20322;-61
2022/11/05 12:38:17;;;;;;;10.17;5.80;;;10.90;62.30;;;;;;5032682;28;20202;-61
2022/11/05 12:41:01;;;;;;;12.50;5.83;;;10.90;60.40;;;;;;5032274;28;20677;-61
2022/11/05 12:43:40;;;;;;;12.67;6.20;;;10.90;62.70;;;;;;5032654;28;20210;-61
2022/11/05 12:46:18;;;;;;;10.83;6.50;;;11.00;68.90;;;;;;5032404;28;20673;-61
2022/11/05 12:49:12;;;;;;;10.70;5.87;;;11.00;76.70;;;;;;5032481;28;20206;-61
2022/11/05 12:51:59;;;;;;;11.70;6.07;;;11.10;90.30;;;;;;5011607;28;20763;-61
2022/11/05 12:54:48;;;;;;;10.07;6.20;;;11.10;91.70;;;;;;5032058;28;20709;-61
2022/11/05 12:57:16;;;;;;;10.90;5.97;;;11.00;86.10;;;;;;5032174;28;20272;-61
2022/11/05 12:59:51;;;;;;;12.87;6.37;;;10.90;99.90;;;;;;5032034;28;20672;-61
2022/11/05 13:02:25;;;;;;;14.63;6.53;;;10.90;95.20;;;;;;5032293;28;20740;-61
2022/11/05 13:04:56;;;;;;;9.87;5.93;;;10.80;96.80;;;;;;5032129;28;20653;-60
2022/11/05 13:07:28;;;;;;;14.87;6.53;;;10.90;99.90;;;;;;5032338;28;20210;-59
2022/11/05 13:09:59;;;;;;;12.27;5.90;;;11.00;99.90;;;;;;5032008;28;20233;-60
2022/11/05 13:12:28;;;;;;;13.47;6.17;;;10.90;99.90;;;;;;5032373;28;20233;-60
2022/11/05 13:14:58;;;;;;;9.57;5.23;;;11.00;95.90;;;;;;5032465;28;20234;-60
2022/11/05 13:17:30;;;;;;;10.03;6.27;;;11.00;89.30;;;;;;5031942;28;20584;-61
2022/11/05 13:20:05;;;;;;;10.03;6.23;;;10.90;94.40;;;;;;5030351;28;20265;-61
2022/11/05 13:22:36;;;;;;;10.67;6.23;;;11.00;92.90;;;;;;5031881;28;20226;-63
2022/11/05 13:25:12;;;;;;;10.80;5.93;;;11.10;83.70;;;;;;5031805;28;20559;-61
2022/11/05 13:27:48;;;;;;;14.07;6.73;;;11.10;90.50;;;;;;5031861;28;20553;-61
2022/11/05 13:30:19;;;;;;;8.10;4.53;;;11.20;77.10;;;;;;5031666;28;20213;-60
2022/11/05 13:32:53;;;;;;;6.10;4.23;;;11.30;83.10;;;;;;5030433;28;20234;-61
2022/11/05 13:35:26;;;;;;;8.17;4.63;;;11.40;79.90;;;;;;5031771;28;20228;-61